sensor_id;sensor_type;location;lat;lon;timestamp;P1;durP1;ratioP1;P2;durP2;ratioP2
11211;SDS011;5663;50.864;12.096;2023-04-07T00:01:19;22.00;;;16.03;;
11211;SDS011;5663;50.864;12.096;2023-04-07T00:03:47;23.27;;;16.57;;
11211;SDS011;5663;50.864;12.096;2023-04-07T00:06:16;21.10;;;16.80;;
11211;SDS011;5663;50.864;12.096;2023-04-07T00:08:44;20.70;;;15.93;;
11211;SDS011;5663;50.864;12.096;2023-04-07T00:11:13;23.73;;;16.73;;
11211;SDS011;5663;50.864;12.096;2023-04-07T00:13:41;24.50;;;18.10;;
11211;SDS011;5663;50.864;12.096;2023-04-07T00:16:08;22.27;;;16.30;;
11211;SDS011;5663;50.864;12.096;2023-04-07T00:18:36;25.00;;;16.43;;
11211;SDS011;5663;50.864;12.096;2023-04-07T00:21:04;23.77;;;16.13;;
11211;SDS011;5663;50.864;12.096;2023-04-07T00:23:32;22.93;;;17.67;;
11211;SDS011;5663;50.864;12.096;2023-04-07T00:25:59;25.30;;;16.90;;
11211;SDS011;5663;50.864;12.096;2023-04-07T00:28:28;23.50;;;17.03;;
11211;SDS011;5663;50.864;12.096;2023-04-07T00:30:56;22.70;;;17.93;;
11211;SDS011;5663;50.864;12.096;2023-04-07T00:33:24;24.27;;;17.87;;
11211;SDS011;5663;50.864;12.096;2023-04-07T00:35:52;23.50;;;17.37;;
11211;SDS011;5663;50.864;12.096;2023-04-07T00:38:22;27.03;;;17.93;;
11211;SDS011;5663;50.864;12.096;2023-04-07T00:40:56;26.13;;;17.57;;
11211;SDS011;5663;50.864;12.096;2023-04-07T00:43:25;24.47;;;17.80;;
11211;SDS011;5663;50.864;12.096;2023-04-07T00:45:54;19.90;;;15.70;;
11211;SDS011;5663;50.864;12.096;2023-04-07T00:48:22;20.90;;;15.77;;
11211;SDS011;5663;50.864;12.096;2023-04-07T00:50:51;21.40;;;16.63;;
11211;SDS011;5663;50.864;12.096;2023-04-07T00:53:19;17.87;;;12.93;;
11211;SDS011;5663;50.864;12.096;2023-04-07T00:55:47;21.00;;;15.47;;
11211;SDS011;5663;50.864;12.096;2023-04-07T00:58:15;23.83;;;18.27;;
11211;SDS011;5663;50.864;12.096;2023-04-07T01:00:44;24.53;;;17.13;;
11211;SDS011;5663;50.864;12.096;2023-04-07T01:03:19;21.70;;;16.53;;
11211;SDS011;5663;50.864;12.096;2023-04-07T01:05:52;22.67;;;17.40;;
11211;SDS011;5663;50.864;12.096;2023-04-07T01:08:29;23.80;;;17.43;;
11211;SDS011;5663;50.864;12.096;2023-04-07T01:11:01;22.13;;;16.83;;
11211;SDS011;5663;50.864;12.096;2023-04-07T01:13:35;21.53;;;16.60;;
11211;SDS011;5663;50.864;12.096;2023-04-07T01:16:10;17.50;;;14.13;;
11211;SDS011;5663;50.864;12.096;2023-04-07T01:18:43;19.43;;;14.10;;
11211;SDS011;5663;50.864;12.096;2023-04-07T01:21:14;22.80;;;17.03;;
11211;SDS011;5663;50.864;12.096;2023-04-07T01:23:48;23.77;;;16.60;;
11211;SDS011;5663;50.864;12.096;2023-04-07T01:26:27;22.70;;;16.47;;
11211;SDS011;5663;50.864;12.096;2023-04-07T01:29:05;26.97;;;18.07;;
11211;SDS011;5663;50.864;12.096;2023-04-07T01:31:41;23.10;;;16.83;;
11211;SDS011;5663;50.864;12.096;2023-04-07T01:34:11;16.97;;;13.63;;
11211;SDS011;5663;50.864;12.096;2023-04-07T01:36:40;21.30;;;16.40;;
11211;SDS011;5663;50.864;12.096;2023-04-07T01:39:09;16.27;;;12.53;;
11211;SDS011;5663;50.864;12.096;2023-04-07T01:41:38;21.27;;;15.20;;
11211;SDS011;5663;50.864;12.096;2023-04-07T01:44:07;15.50;;;11.10;;
11211;SDS011;5663;50.864;12.096;2023-04-07T01:46:36;20.70;;;16.30;;
11211;SDS011;5663;50.864;12.096;2023-04-07T01:49:06;17.00;;;12.73;;
11211;SDS011;5663;50.864;12.096;2023-04-07T01:51:34;21.63;;;16.10;;
11211;SDS011;5663;50.864;12.096;2023-04-07T01:54:03;23.97;;;16.90;;
11211;SDS011;5663;50.864;12.096;2023-04-07T01:56:31;19.53;;;14.97;;
11211;SDS011;5663;50.864;12.096;2023-04-07T01:58:59;21.40;;;16.20;;
11211;SDS011;5663;50.864;12.096;2023-04-07T02:01:27;15.80;;;12.17;;
11211;SDS011;5663;50.864;12.096;2023-04-07T02:03:55;22.13;;;15.70;;
11211;SDS011;5663;50.864;12.096;2023-04-07T02:06:34;20.20;;;14.67;;
11211;SDS011;5663;50.864;12.096;2023-04-07T02:09:09;16.93;;;13.33;;
11211;SDS011;5663;50.864;12.096;2023-04-07T02:11:37;21.27;;;15.60;;
11211;SDS011;5663;50.864;12.096;2023-04-07T02:14:08;20.80;;;15.93;;
11211;SDS011;5663;50.864;12.096;2023-04-07T02:16:37;21.97;;;15.57;;
11211;SDS011;5663;50.864;12.096;2023-04-07T02:19:07;21.90;;;15.53;;
11211;SDS011;5663;50.864;12.096;2023-04-07T02:21:37;21.50;;;14.53;;
11211;SDS011;5663;50.864;12.096;2023-04-07T02:24:07;20.57;;;13.53;;
11211;SDS011;5663;50.864;12.096;2023-04-07T02:26:37;19.20;;;13.13;;
11211;SDS011;5663;50.864;12.096;2023-04-07T02:29:05;17.63;;;13.23;;
11211;SDS011;5663;50.864;12.096;2023-04-07T02:31:33;20.67;;;14.50;;
11211;SDS011;5663;50.864;12.096;2023-04-07T02:34:00;20.67;;;14.27;;
11211;SDS011;5663;50.864;12.096;2023-04-07T02:36:28;17.00;;;12.03;;
11211;SDS011;5663;50.864;12.096;2023-04-07T02:38:58;20.23;;;13.83;;
11211;SDS011;5663;50.864;12.096;2023-04-07T02:41:25;19.20;;;13.57;;
11211;SDS011;5663;50.864;12.096;2023-04-07T02:43:53;16.60;;;13.43;;
11211;SDS011;5663;50.864;12.096;2023-04-07T02:46:21;19.07;;;13.60;;
11211;SDS011;5663;50.864;12.096;2023-04-07T02:48:48;20.80;;;13.57;;
11211;SDS011;5663;50.864;12.096;2023-04-07T02:51:16;17.60;;;11.73;;
11211;SDS011;5663;50.864;12.096;2023-04-07T02:53:44;17.67;;;12.00;;
11211;SDS011;5663;50.864;12.096;2023-04-07T02:56:13;17.33;;;11.80;;
11211;SDS011;5663;50.864;12.096;2023-04-07T02:58:41;17.90;;;13.40;;
11211;SDS011;5663;50.864;12.096;2023-04-07T03:01:09;17.33;;;12.70;;
11211;SDS011;5663;50.864;12.096;2023-04-07T03:03:36;17.53;;;13.23;;
11211;SDS011;5663;50.864;12.096;2023-04-07T03:06:07;15.53;;;11.00;;
11211;SDS011;5663;50.864;12.096;2023-04-07T03:08:35;16.50;;;11.57;;
11211;SDS011;5663;50.864;12.096;2023-04-07T03:11:02;18.70;;;12.63;;
11211;SDS011;5663;50.864;12.096;2023-04-07T03:13:31;16.07;;;12.20;;
11211;SDS011;5663;50.864;12.096;2023-04-07T03:15:59;16.30;;;12.20;;
11211;SDS011;5663;50.864;12.096;2023-04-07T03:18:27;17.97;;;11.37;;
11211;SDS011;5663;50.864;12.096;2023-04-07T03:20:55;15.83;;;11.27;;
11211;SDS011;5663;50.864;12.096;2023-04-07T03:23:23;15.23;;;11.67;;
11211;SDS011;5663;50.864;12.096;2023-04-07T03:25:51;17.53;;;12.23;;
11211;SDS011;5663;50.864;12.096;2023-04-07T03:28:19;17.57;;;12.73;;
11211;SDS011;5663;50.864;12.096;2023-04-07T03:30:48;16.73;;;11.97;;
11211;SDS011;5663;50.864;12.096;2023-04-07T03:33:16;15.97;;;11.57;;
11211;SDS011;5663;50.864;12.096;2023-04-07T03:35:44;16.70;;;11.73;;
11211;SDS011;5663;50.864;12.096;2023-04-07T03:38:11;16.87;;;11.90;;
11211;SDS011;5663;50.864;12.096;2023-04-07T03:40:39;14.47;;;10.60;;
11211;SDS011;5663;50.864;12.096;2023-04-07T03:43:06;9.97;;;7.13;;
11211;SDS011;5663;50.864;12.096;2023-04-07T03:45:39;17.40;;;11.77;;
11211;SDS011;5663;50.864;12.096;2023-04-07T03:48:08;15.73;;;10.47;;
11211;SDS011;5663;50.864;12.096;2023-04-07T03:50:36;16.50;;;8.77;;
11211;SDS011;5663;50.864;12.096;2023-04-07T03:53:05;17.87;;;11.50;;
11211;SDS011;5663;50.864;12.096;2023-04-07T03:55:33;20.13;;;11.17;;
11211;SDS011;5663;50.864;12.096;2023-04-07T03:58:01;15.40;;;11.20;;
11211;SDS011;5663;50.864;12.096;2023-04-07T04:00:29;14.23;;;11.03;;
11211;SDS011;5663;50.864;12.096;2023-04-07T04:02:58;12.27;;;9.33;;
11211;SDS011;5663;50.864;12.096;2023-04-07T04:05:27;15.33;;;11.23;;
11211;SDS011;5663;50.864;12.096;2023-04-07T04:07:55;16.10;;;10.90;;
11211;SDS011;5663;50.864;12.096;2023-04-07T04:10:23;15.23;;;10.63;;
11211;SDS011;5663;50.864;12.096;2023-04-07T04:12:51;13.57;;;8.93;;
11211;SDS011;5663;50.864;12.096;2023-04-07T04:15:19;13.27;;;8.57;;
11211;SDS011;5663;50.864;12.096;2023-04-07T04:17:46;15.00;;;10.87;;
11211;SDS011;5663;50.864;12.096;2023-04-07T04:20:14;12.93;;;8.97;;
11211;SDS011;5663;50.864;12.096;2023-04-07T04:22:44;14.83;;;10.53;;
11211;SDS011;5663;50.864;12.096;2023-04-07T04:25:11;13.87;;;10.50;;
11211;SDS011;5663;50.864;12.096;2023-04-07T04:27:39;16.17;;;11.77;;
11211;SDS011;5663;50.864;12.096;2023-04-07T04:30:07;16.60;;;11.43;;
11211;SDS011;5663;50.864;12.096;2023-04-07T04:32:35;17.20;;;11.87;;
11211;SDS011;5663;50.864;12.096;2023-04-07T04:35:02;15.23;;;11.60;;
11211;SDS011;5663;50.864;12.096;2023-04-07T04:37:30;15.03;;;10.63;;
11211;SDS011;5663;50.864;12.096;2023-04-07T04:40:00;18.17;;;12.07;;
11211;SDS011;5663;50.864;12.096;2023-04-07T04:42:28;16.47;;;11.73;;
11211;SDS011;5663;50.864;12.096;2023-04-07T04:44:58;16.03;;;11.50;;
11211;SDS011;5663;50.864;12.096;2023-04-07T04:47:26;13.73;;;10.00;;
11211;SDS011;5663;50.864;12.096;2023-04-07T04:49:54;19.90;;;12.70;;
11211;SDS011;5663;50.864;12.096;2023-04-07T04:52:22;14.43;;;9.83;;
11211;SDS011;5663;50.864;12.096;2023-04-07T04:54:50;19.67;;;11.33;;
11211;SDS011;5663;50.864;12.096;2023-04-07T04:57:19;16.93;;;11.57;;
11211;SDS011;5663;50.864;12.096;2023-04-07T04:59:47;15.03;;;10.33;;
11211;SDS011;5663;50.864;12.096;2023-04-07T05:02:14;18.73;;;12.13;;
11211;SDS011;5663;50.864;12.096;2023-04-07T05:04:46;16.50;;;11.87;;
11211;SDS011;5663;50.864;12.096;2023-04-07T05:07:16;16.20;;;11.73;;
11211;SDS011;5663;50.864;12.096;2023-04-07T05:09:43;17.40;;;12.57;;
11211;SDS011;5663;50.864;12.096;2023-04-07T05:12:11;17.57;;;11.97;;
11211;SDS011;5663;50.864;12.096;2023-04-07T05:14:40;16.10;;;11.80;;
11211;SDS011;5663;50.864;12.096;2023-04-07T05:17:08;12.20;;;9.13;;
11211;SDS011;5663;50.864;12.096;2023-04-07T05:19:36;16.77;;;11.90;;
11211;SDS011;5663;50.864;12.096;2023-04-07T05:22:04;9.13;;;7.07;;
11211;SDS011;5663;50.864;12.096;2023-04-07T05:24:31;14.23;;;9.70;;
11211;SDS011;5663;50.864;12.096;2023-04-07T05:26:59;17.20;;;9.40;;
11211;SDS011;5663;50.864;12.096;2023-04-07T05:29:26;15.93;;;12.10;;
11211;SDS011;5663;50.864;12.096;2023-04-07T05:31:55;15.23;;;11.03;;
11211;SDS011;5663;50.864;12.096;2023-04-07T05:34:23;14.87;;;10.93;;
11211;SDS011;5663;50.864;12.096;2023-04-07T05:36:51;15.30;;;11.20;;
11211;SDS011;5663;50.864;12.096;2023-04-07T05:39:19;13.93;;;9.83;;
11211;SDS011;5663;50.864;12.096;2023-04-07T05:41:47;9.67;;;7.00;;
11211;SDS011;5663;50.864;12.096;2023-04-07T05:44:14;12.93;;;10.27;;
11211;SDS011;5663;50.864;12.096;2023-04-07T05:46:42;15.13;;;11.17;;
11211;SDS011;5663;50.864;12.096;2023-04-07T05:49:12;15.73;;;11.30;;
11211;SDS011;5663;50.864;12.096;2023-04-07T05:51:40;10.77;;;8.23;;
11211;SDS011;5663;50.864;12.096;2023-04-07T05:54:07;13.40;;;10.33;;
11211;SDS011;5663;50.864;12.096;2023-04-07T05:56:35;17.40;;;11.57;;
11211;SDS011;5663;50.864;12.096;2023-04-07T05:59:03;9.20;;;7.37;;
11211;SDS011;5663;50.864;12.096;2023-04-07T06:01:30;10.93;;;6.13;;
11211;SDS011;5663;50.864;12.096;2023-04-07T06:03:58;13.87;;;10.43;;
11211;SDS011;5663;50.864;12.096;2023-04-07T06:06:29;16.10;;;11.47;;
11211;SDS011;5663;50.864;12.096;2023-04-07T06:08:57;12.73;;;10.40;;
11211;SDS011;5663;50.864;12.096;2023-04-07T06:11:25;11.63;;;8.63;;
11211;SDS011;5663;50.864;12.096;2023-04-07T06:13:53;8.70;;;6.87;;
11211;SDS011;5663;50.864;12.096;2023-04-07T06:16:20;18.23;;;13.57;;
11211;SDS011;5663;50.864;12.096;2023-04-07T06:18:48;12.80;;;9.57;;
11211;SDS011;5663;50.864;12.096;2023-04-07T06:21:16;10.00;;;6.97;;
11211;SDS011;5663;50.864;12.096;2023-04-07T06:23:45;18.27;;;13.07;;
11211;SDS011;5663;50.864;12.096;2023-04-07T06:26:13;14.10;;;10.60;;
11211;SDS011;5663;50.864;12.096;2023-04-07T06:28:41;14.83;;;10.87;;
11211;SDS011;5663;50.864;12.096;2023-04-07T06:31:08;12.27;;;9.60;;
11211;SDS011;5663;50.864;12.096;2023-04-07T06:33:36;14.03;;;11.17;;
11211;SDS011;5663;50.864;12.096;2023-04-07T06:36:04;10.73;;;8.90;;
11211;SDS011;5663;50.864;12.096;2023-04-07T06:38:32;28.13;;;12.67;;
11211;SDS011;5663;50.864;12.096;2023-04-07T06:41:01;19.20;;;13.17;;
11211;SDS011;5663;50.864;12.096;2023-04-07T06:43:29;18.77;;;12.87;;
11211;SDS011;5663;50.864;12.096;2023-04-07T06:45:56;17.57;;;12.37;;
11211;SDS011;5663;50.864;12.096;2023-04-07T06:48:24;20.10;;;14.70;;
11211;SDS011;5663;50.864;12.096;2023-04-07T06:50:51;17.67;;;13.40;;
11211;SDS011;5663;50.864;12.096;2023-04-07T06:53:19;15.63;;;11.70;;
11211;SDS011;5663;50.864;12.096;2023-04-07T06:55:47;15.13;;;10.67;;
11211;SDS011;5663;50.864;12.096;2023-04-07T06:58:16;18.37;;;12.03;;
11211;SDS011;5663;50.864;12.096;2023-04-07T07:00:44;16.27;;;11.63;;
11211;SDS011;5663;50.864;12.096;2023-04-07T07:03:12;20.30;;;13.03;;
11211;SDS011;5663;50.864;12.096;2023-04-07T07:05:39;14.17;;;11.80;;
11211;SDS011;5663;50.864;12.096;2023-04-07T07:08:07;14.83;;;11.93;;
11211;SDS011;5663;50.864;12.096;2023-04-07T07:10:35;15.63;;;13.03;;
11211;SDS011;5663;50.864;12.096;2023-04-07T07:13:02;15.37;;;11.97;;
11211;SDS011;5663;50.864;12.096;2023-04-07T07:15:32;14.93;;;11.97;;
11211;SDS011;5663;50.864;12.096;2023-04-07T07:17:59;15.47;;;13.43;;
11211;SDS011;5663;50.864;12.096;2023-04-07T07:20:27;19.17;;;14.33;;
11211;SDS011;5663;50.864;12.096;2023-04-07T07:22:55;19.70;;;14.53;;
11211;SDS011;5663;50.864;12.096;2023-04-07T07:25:23;18.83;;;14.10;;
11211;SDS011;5663;50.864;12.096;2023-04-07T07:27:51;21.13;;;13.23;;
11211;SDS011;5663;50.864;12.096;2023-04-07T07:30:20;15.70;;;12.40;;
11211;SDS011;5663;50.864;12.096;2023-04-07T07:32:51;17.37;;;12.30;;
11211;SDS011;5663;50.864;12.096;2023-04-07T07:35:19;16.57;;;14.00;;
11211;SDS011;5663;50.864;12.096;2023-04-07T07:37:50;15.57;;;13.37;;
11211;SDS011;5663;50.864;12.096;2023-04-07T07:40:18;15.40;;;12.03;;
11211;SDS011;5663;50.864;12.096;2023-04-07T07:42:46;15.67;;;12.50;;
11211;SDS011;5663;50.864;12.096;2023-04-07T07:45:14;16.37;;;11.43;;
11211;SDS011;5663;50.864;12.096;2023-04-07T07:47:44;16.10;;;12.03;;
11211;SDS011;5663;50.864;12.096;2023-04-07T07:50:13;16.93;;;11.63;;
11211;SDS011;5663;50.864;12.096;2023-04-07T07:52:42;13.03;;;10.83;;
11211;SDS011;5663;50.864;12.096;2023-04-07T07:55:10;14.27;;;11.73;;
11211;SDS011;5663;50.864;12.096;2023-04-07T07:57:38;16.17;;;10.57;;
11211;SDS011;5663;50.864;12.096;2023-04-07T08:00:07;15.27;;;10.43;;
11211;SDS011;5663;50.864;12.096;2023-04-07T08:02:35;13.07;;;10.63;;
11211;SDS011;5663;50.864;12.096;2023-04-07T08:05:05;14.43;;;10.27;;
11211;SDS011;5663;50.864;12.096;2023-04-07T08:07:35;13.83;;;10.77;;
11211;SDS011;5663;50.864;12.096;2023-04-07T08:10:03;15.00;;;11.63;;
11211;SDS011;5663;50.864;12.096;2023-04-07T08:12:33;14.13;;;10.23;;
11211;SDS011;5663;50.864;12.096;2023-04-07T08:15:06;14.10;;;10.90;;
11211;SDS011;5663;50.864;12.096;2023-04-07T08:17:37;11.90;;;10.37;;
11211;SDS011;5663;50.864;12.096;2023-04-07T08:20:08;13.70;;;10.17;;
11211;SDS011;5663;50.864;12.096;2023-04-07T08:22:37;13.10;;;10.63;;
11211;SDS011;5663;50.864;12.096;2023-04-07T08:25:06;12.13;;;10.13;;
11211;SDS011;5663;50.864;12.096;2023-04-07T08:27:35;12.67;;;10.60;;
11211;SDS011;5663;50.864;12.096;2023-04-07T08:30:04;18.50;;;10.50;;
11211;SDS011;5663;50.864;12.096;2023-04-07T08:32:34;12.47;;;9.93;;
11211;SDS011;5663;50.864;12.096;2023-04-07T08:35:04;13.43;;;10.00;;
11211;SDS011;5663;50.864;12.096;2023-04-07T08:37:31;11.27;;;9.50;;
11211;SDS011;5663;50.864;12.096;2023-04-07T08:40:02;12.07;;;10.07;;
11211;SDS011;5663;50.864;12.096;2023-04-07T08:42:30;13.70;;;10.20;;
11211;SDS011;5663;50.864;12.096;2023-04-07T08:45:01;12.23;;;10.17;;
11211;SDS011;5663;50.864;12.096;2023-04-07T08:47:30;12.70;;;9.23;;
11211;SDS011;5663;50.864;12.096;2023-04-07T08:49:59;13.43;;;9.53;;
11211;SDS011;5663;50.864;12.096;2023-04-07T08:52:31;19.40;;;10.53;;
11211;SDS011;5663;50.864;12.096;2023-04-07T08:55:04;14.67;;;9.17;;
11211;SDS011;5663;50.864;12.096;2023-04-07T08:57:34;14.30;;;9.90;;
11211;SDS011;5663;50.864;12.096;2023-04-07T09:00:04;12.50;;;9.37;;
11211;SDS011;5663;50.864;12.096;2023-04-07T09:02:35;13.37;;;9.97;;
11211;SDS011;5663;50.864;12.096;2023-04-07T09:05:05;15.00;;;10.43;;
11211;SDS011;5663;50.864;12.096;2023-04-07T09:07:34;13.90;;;10.20;;
11211;SDS011;5663;50.864;12.096;2023-04-07T09:10:05;14.27;;;9.20;;
11211;SDS011;5663;50.864;12.096;2023-04-07T09:12:35;13.03;;;9.63;;
11211;SDS011;5663;50.864;12.096;2023-04-07T09:15:03;14.50;;;9.70;;
11211;SDS011;5663;50.864;12.096;2023-04-07T09:17:31;12.63;;;9.53;;
11211;SDS011;5663;50.864;12.096;2023-04-07T09:20:00;12.67;;;9.70;;
11211;SDS011;5663;50.864;12.096;2023-04-07T09:22:34;14.50;;;10.33;;
11211;SDS011;5663;50.864;12.096;2023-04-07T09:25:11;14.17;;;9.77;;
11211;SDS011;5663;50.864;12.096;2023-04-07T09:27:39;11.07;;;9.20;;
11211;SDS011;5663;50.864;12.096;2023-04-07T09:30:10;15.17;;;9.80;;
11211;SDS011;5663;50.864;12.096;2023-04-07T09:32:40;13.97;;;9.43;;
11211;SDS011;5663;50.864;12.096;2023-04-07T09:35:08;14.30;;;10.13;;
11211;SDS011;5663;50.864;12.096;2023-04-07T09:37:37;12.00;;;9.33;;
11211;SDS011;5663;50.864;12.096;2023-04-07T09:40:10;12.67;;;9.57;;
11211;SDS011;5663;50.864;12.096;2023-04-07T09:42:56;11.13;;;8.93;;
11211;SDS011;5663;50.864;12.096;2023-04-07T09:45:25;12.50;;;9.60;;
11211;SDS011;5663;50.864;12.096;2023-04-07T09:47:53;10.83;;;9.20;;
11211;SDS011;5663;50.864;12.096;2023-04-07T09:50:30;12.03;;;10.03;;
11211;SDS011;5663;50.864;12.096;2023-04-07T09:53:00;15.13;;;9.90;;
11211;SDS011;5663;50.864;12.096;2023-04-07T09:55:32;11.47;;;9.00;;
11211;SDS011;5663;50.864;12.096;2023-04-07T09:58:01;10.63;;;8.77;;
11211;SDS011;5663;50.864;12.096;2023-04-07T10:00:32;11.00;;;9.33;;
11211;SDS011;5663;50.864;12.096;2023-04-07T10:03:04;12.47;;;9.40;;
11211;SDS011;5663;50.864;12.096;2023-04-07T10:05:34;12.50;;;9.47;;
11211;SDS011;5663;50.864;12.096;2023-04-07T10:08:03;11.07;;;9.10;;
11211;SDS011;5663;50.864;12.096;2023-04-07T10:10:35;10.13;;;8.57;;
11211;SDS011;5663;50.864;12.096;2023-04-07T10:13:09;10.77;;;9.03;;
11211;SDS011;5663;50.864;12.096;2023-04-07T10:15:38;15.23;;;8.57;;
11211;SDS011;5663;50.864;12.096;2023-04-07T10:18:06;12.07;;;9.47;;
11211;SDS011;5663;50.864;12.096;2023-04-07T10:20:35;11.70;;;8.37;;
11211;SDS011;5663;50.864;12.096;2023-04-07T10:23:08;11.17;;;8.77;;
11211;SDS011;5663;50.864;12.096;2023-04-07T10:25:43;10.80;;;9.07;;
11211;SDS011;5663;50.864;12.096;2023-04-07T10:28:13;13.93;;;8.87;;
11211;SDS011;5663;50.864;12.096;2023-04-07T10:30:42;10.37;;;8.80;;
11211;SDS011;5663;50.864;12.096;2023-04-07T10:33:11;9.90;;;8.67;;
11211;SDS011;5663;50.864;12.096;2023-04-07T10:36:02;10.40;;;8.80;;
11211;SDS011;5663;50.864;12.096;2023-04-07T10:38:31;12.37;;;8.67;;
11211;SDS011;5663;50.864;12.096;2023-04-07T10:41:00;10.27;;;8.83;;
11211;SDS011;5663;50.864;12.096;2023-04-07T10:44:01;10.00;;;8.53;;
11211;SDS011;5663;50.864;12.096;2023-04-07T10:49:36;9.77;;;8.77;;
11211;SDS011;5663;50.864;12.096;2023-04-07T10:52:22;11.27;;;8.53;;
11211;SDS011;5663;50.864;12.096;2023-04-07T11:03:52;10.97;;;8.73;;
11211;SDS011;5663;50.864;12.096;2023-04-07T11:06:24;11.77;;;9.03;;
11211;SDS011;5663;50.864;12.096;2023-04-07T11:08:52;10.67;;;9.17;;
11211;SDS011;5663;50.864;12.096;2023-04-07T11:11:34;11.93;;;9.50;;
11211;SDS011;5663;50.864;12.096;2023-04-07T11:14:06;9.27;;;7.57;;
11211;SDS011;5663;50.864;12.096;2023-04-07T11:16:39;9.70;;;7.40;;
11211;SDS011;5663;50.864;12.096;2023-04-07T11:19:09;9.43;;;7.57;;
11211;SDS011;5663;50.864;12.096;2023-04-07T11:21:38;9.93;;;7.30;;
11211;SDS011;5663;50.864;12.096;2023-04-07T11:24:44;8.90;;;7.03;;
11211;SDS011;5663;50.864;12.096;2023-04-07T11:27:45;10.87;;;8.47;;
11211;SDS011;5663;50.864;12.096;2023-04-07T11:30:17;8.80;;;7.83;;
11211;SDS011;5663;50.864;12.096;2023-04-07T11:32:47;10.97;;;8.00;;
11211;SDS011;5663;50.864;12.096;2023-04-07T11:35:20;9.77;;;7.87;;
11211;SDS011;5663;50.864;12.096;2023-04-07T11:37:48;8.60;;;7.60;;
11211;SDS011;5663;50.864;12.096;2023-04-07T11:40:33;8.73;;;7.67;;
11211;SDS011;5663;50.864;12.096;2023-04-07T11:43:14;11.37;;;7.73;;
11211;SDS011;5663;50.864;12.096;2023-04-07T11:45:49;10.17;;;7.70;;
11211;SDS011;5663;50.864;12.096;2023-04-07T11:48:43;11.30;;;9.70;;
11211;SDS011;5663;50.864;12.096;2023-04-07T11:51:18;10.33;;;7.87;;
11211;SDS011;5663;50.864;12.096;2023-04-07T11:53:53;9.97;;;7.43;;
11211;SDS011;5663;50.864;12.096;2023-04-07T11:56:25;13.90;;;12.47;;
11211;SDS011;5663;50.864;12.096;2023-04-07T11:58:56;8.33;;;7.20;;
11211;SDS011;5663;50.864;12.096;2023-04-07T12:01:39;9.77;;;7.87;;
11211;SDS011;5663;50.864;12.096;2023-04-07T12:04:11;11.03;;;7.60;;
11211;SDS011;5663;50.864;12.096;2023-04-07T12:06:42;10.57;;;7.73;;
11211;SDS011;5663;50.864;12.096;2023-04-07T12:09:27;9.50;;;7.77;;
11211;SDS011;5663;50.864;12.096;2023-04-07T12:11:57;8.63;;;7.43;;
11211;SDS011;5663;50.864;12.096;2023-04-07T12:14:27;10.70;;;7.90;;
11211;SDS011;5663;50.864;12.096;2023-04-07T12:16:57;9.90;;;7.63;;
11211;SDS011;5663;50.864;12.096;2023-04-07T12:19:28;8.43;;;7.33;;
11211;SDS011;5663;50.864;12.096;2023-04-07T12:21:59;10.07;;;7.57;;
11211;SDS011;5663;50.864;12.096;2023-04-07T12:24:27;9.57;;;7.63;;
11211;SDS011;5663;50.864;12.096;2023-04-07T12:26:58;11.27;;;7.90;;
11211;SDS011;5663;50.864;12.096;2023-04-07T12:29:31;9.93;;;7.83;;
11211;SDS011;5663;50.864;12.096;2023-04-07T12:32:03;9.30;;;7.90;;
11211;SDS011;5663;50.864;12.096;2023-04-07T12:34:33;9.37;;;7.63;;
11211;SDS011;5663;50.864;12.096;2023-04-07T12:37:08;8.73;;;7.83;;
11211;SDS011;5663;50.864;12.096;2023-04-07T12:39:37;8.80;;;7.50;;
11211;SDS011;5663;50.864;12.096;2023-04-07T12:42:07;9.03;;;8.13;;
11211;SDS011;5663;50.864;12.096;2023-04-07T12:44:36;9.67;;;8.23;;
11211;SDS011;5663;50.864;12.096;2023-04-07T12:47:05;9.30;;;7.40;;
11211;SDS011;5663;50.864;12.096;2023-04-07T12:49:37;10.60;;;7.30;;
11211;SDS011;5663;50.864;12.096;2023-04-07T12:52:11;9.57;;;7.93;;
11211;SDS011;5663;50.864;12.096;2023-04-07T12:54:40;10.33;;;8.17;;
11211;SDS011;5663;50.864;12.096;2023-04-07T12:57:12;51.90;;;11.20;;
11211;SDS011;5663;50.864;12.096;2023-04-07T12:59:42;10.50;;;8.30;;
11211;SDS011;5663;50.864;12.096;2023-04-07T13:02:16;10.47;;;8.33;;
11211;SDS011;5663;50.864;12.096;2023-04-07T13:04:50;9.50;;;7.50;;
11211;SDS011;5663;50.864;12.096;2023-04-07T13:07:18;10.63;;;8.57;;
11211;SDS011;5663;50.864;12.096;2023-04-07T13:09:48;10.33;;;8.30;;
11211;SDS011;5663;50.864;12.096;2023-04-07T13:12:16;12.20;;;8.13;;
11211;SDS011;5663;50.864;12.096;2023-04-07T13:14:44;8.90;;;8.00;;
11211;SDS011;5663;50.864;12.096;2023-04-07T13:17:15;9.43;;;7.87;;
11211;SDS011;5663;50.864;12.096;2023-04-07T13:19:49;11.23;;;8.47;;
11211;SDS011;5663;50.864;12.096;2023-04-07T13:22:18;9.67;;;8.27;;
11211;SDS011;5663;50.864;12.096;2023-04-07T13:24:50;12.43;;;8.47;;
11211;SDS011;5663;50.864;12.096;2023-04-07T13:27:17;10.30;;;8.40;;
11211;SDS011;5663;50.864;12.096;2023-04-07T13:29:47;9.77;;;7.50;;
11211;SDS011;5663;50.864;12.096;2023-04-07T13:32:17;11.47;;;8.47;;
11211;SDS011;5663;50.864;12.096;2023-04-07T13:34:48;10.17;;;8.17;;
11211;SDS011;5663;50.864;12.096;2023-04-07T13:37:18;12.93;;;8.77;;
11211;SDS011;5663;50.864;12.096;2023-04-07T13:39:47;10.33;;;8.73;;
11211;SDS011;5663;50.864;12.096;2023-04-07T13:42:16;10.47;;;7.77;;
11211;SDS011;5663;50.864;12.096;2023-04-07T13:44:48;11.57;;;8.30;;
11211;SDS011;5663;50.864;12.096;2023-04-07T13:47:18;10.60;;;8.13;;
11211;SDS011;5663;50.864;12.096;2023-04-07T13:49:47;10.17;;;8.33;;
11211;SDS011;5663;50.864;12.096;2023-04-07T13:52:16;10.23;;;8.17;;
11211;SDS011;5663;50.864;12.096;2023-04-07T13:54:45;13.27;;;7.87;;
11211;SDS011;5663;50.864;12.096;2023-04-07T13:57:13;10.80;;;8.23;;
11211;SDS011;5663;50.864;12.096;2023-04-07T13:59:47;9.93;;;7.70;;
11211;SDS011;5663;50.864;12.096;2023-04-07T14:02:19;10.33;;;7.53;;
11211;SDS011;5663;50.864;12.096;2023-04-07T14:04:51;10.00;;;7.80;;
11211;SDS011;5663;50.864;12.096;2023-04-07T14:07:18;9.93;;;7.53;;
11211;SDS011;5663;50.864;12.096;2023-04-07T14:09:47;11.63;;;8.77;;
11211;SDS011;5663;50.864;12.096;2023-04-07T14:12:20;10.07;;;8.00;;
11211;SDS011;5663;50.864;12.096;2023-04-07T14:14:50;8.83;;;7.67;;
11211;SDS011;5663;50.864;12.096;2023-04-07T14:17:23;10.80;;;8.27;;
11211;SDS011;5663;50.864;12.096;2023-04-07T14:20:03;9.53;;;8.17;;
11211;SDS011;5663;50.864;12.096;2023-04-07T14:22:34;11.00;;;7.73;;
11211;SDS011;5663;50.864;12.096;2023-04-07T14:25:04;10.17;;;8.30;;
11211;SDS011;5663;50.864;12.096;2023-04-07T14:27:34;10.20;;;8.03;;
11211;SDS011;5663;50.864;12.096;2023-04-07T14:30:01;9.23;;;7.73;;
11211;SDS011;5663;50.864;12.096;2023-04-07T14:32:31;10.97;;;8.60;;
11211;SDS011;5663;50.864;12.096;2023-04-07T14:35:02;12.10;;;9.00;;
11211;SDS011;5663;50.864;12.096;2023-04-07T14:37:29;9.07;;;8.07;;
11211;SDS011;5663;50.864;12.096;2023-04-07T14:39:58;9.40;;;8.27;;
11211;SDS011;5663;50.864;12.096;2023-04-07T14:42:30;9.47;;;7.70;;
11211;SDS011;5663;50.864;12.096;2023-04-07T14:44:59;13.73;;;8.60;;
11211;SDS011;5663;50.864;12.096;2023-04-07T14:47:30;9.83;;;8.17;;
11211;SDS011;5663;50.864;12.096;2023-04-07T14:49:59;11.40;;;8.77;;
11211;SDS011;5663;50.864;12.096;2023-04-07T14:52:26;11.27;;;9.23;;
11211;SDS011;5663;50.864;12.096;2023-04-07T14:54:58;9.67;;;8.33;;
11211;SDS011;5663;50.864;12.096;2023-04-07T14:57:31;12.27;;;9.70;;